createdAt,value
2022-09-23T00:01:57.143Z,6.20
2022-09-23T00:04:26.652Z,5.70
2022-09-23T00:06:56.071Z,6.35
2022-09-23T00:09:25.370Z,6.60
2022-09-23T00:11:55.529Z,6.05
2022-09-23T00:14:24.990Z,6.30
2022-09-23T00:16:54.363Z,6.00
2022-09-23T00:19:23.816Z,6.07
2022-09-23T00:21:53.220Z,6.30
2022-09-23T00:24:22.547Z,6.57
2022-09-23T00:26:51.979Z,6.28
2022-09-23T00:29:21.226Z,6.65
2022-09-23T00:31:50.540Z,7.20
2022-09-23T00:34:19.809Z,6.22
2022-09-23T00:36:49.053Z,6.80
2022-09-23T00:39:18.365Z,6.60
2022-09-23T00:41:47.626Z,6.18
2022-09-23T00:44:44.589Z,6.10
2022-09-23T00:47:23.200Z,6.82
2022-09-23T00:50:02.936Z,6.13
2022-09-23T00:52:34.244Z,6.88
2022-09-23T00:55:08.337Z,6.53
2022-09-23T00:57:39.887Z,6.05
2022-09-23T01:00:10.735Z,5.80
2022-09-23T01:02:42.649Z,6.43
2022-09-23T01:05:12.294Z,6.53
2022-09-23T01:07:42.014Z,5.30
2022-09-23T01:10:13.556Z,5.50
2022-09-23T01:13:25.764Z,6.03
2022-09-23T01:16:37.535Z,5.82
2022-09-23T01:19:47.270Z,6.28
2022-09-23T01:22:34.458Z,6.13
2022-09-23T01:25:31.606Z,6.50
2022-09-23T01:28:38.067Z,6.10
2022-09-23T01:31:33.763Z,6.78
2022-09-23T01:34:09.682Z,6.63
2022-09-23T01:36:45.662Z,6.25
2022-09-23T01:39:41.827Z,6.15
2022-09-23T01:42:33.947Z,6.00
2022-09-23T01:45:12.728Z,5.97
2022-09-23T01:47:50.800Z,6.00
2022-09-23T01:50:41.148Z,6.63
2022-09-23T01:53:24.135Z,6.00
2022-09-23T01:56:00.339Z,6.40
2022-09-23T01:58:54.495Z,6.07
2022-09-23T02:01:37.642Z,6.38
2022-09-23T02:04:12.868Z,5.70
2022-09-23T02:06:52.206Z,5.75
2022-09-23T02:09:28.444Z,6.15
2022-09-23T02:12:05.782Z,5.60
2022-09-23T02:14:42.724Z,5.68
2022-09-23T02:17:15.827Z,5.80
2022-09-23T02:19:50.234Z,5.93
2022-09-23T02:22:28.212Z,5.05
2022-09-23T02:25:00.209Z,5.63
2022-09-23T02:27:43.846Z,5.35
2022-09-23T02:30:17.988Z,6.05
2022-09-23T02:32:54.548Z,6.20
2022-09-23T02:35:37.232Z,6.20
2022-09-23T02:41:07.124Z,6.28
2022-09-23T02:44:02.607Z,6.10
2022-09-23T02:46:32.615Z,6.35
2022-09-23T02:49:04.379Z,6.28
2022-09-23T02:51:37.928Z,5.32
2022-09-23T02:54:14.930Z,5.78
2022-09-23T02:56:44.910Z,5.32
2022-09-23T02:59:19.366Z,5.97
2022-09-23T03:02:07.964Z,6.20
2022-09-23T03:04:59.583Z,5.53
2022-09-23T03:07:38.303Z,5.50
2022-09-23T03:10:25.380Z,5.20
2022-09-23T03:13:07.256Z,5.55
2022-09-23T03:16:02.658Z,5.38
2022-09-23T03:18:50.287Z,5.70
2022-09-23T03:21:26.708Z,4.95
2022-09-23T03:23:58.254Z,5.20
2022-09-23T03:26:33.813Z,5.23
2022-09-23T03:29:07.419Z,5.25
2022-09-23T03:31:37.531Z,6.22
2022-09-23T03:34:13.209Z,5.53
2022-09-23T03:36:52.062Z,5.75
2022-09-23T03:39:41.644Z,5.75
2022-09-23T03:42:17.017Z,6.05
2022-09-23T03:44:48.425Z,5.50
2022-09-23T03:47:19.109Z,6.13
2022-09-23T03:49:51.576Z,5.60
2022-09-23T03:54:52.170Z,5.63
2022-09-23T03:57:23.189Z,5.53
2022-09-23T03:59:53.519Z,5.10
2022-09-23T04:02:23.623Z,5.35
2022-09-23T04:04:52.983Z,5.60
2022-09-23T04:07:22.327Z,5.15
2022-09-23T04:09:51.585Z,5.13
2022-09-23T04:12:20.859Z,5.72
2022-09-23T04:14:50.187Z,5.47
2022-09-23T04:17:19.871Z,4.55
2022-09-23T04:19:49.223Z,5.72
2022-09-23T04:22:18.505Z,5.57
2022-09-23T04:24:49.307Z,4.50
2022-09-23T04:27:18.671Z,5.13
2022-09-23T04:29:48.018Z,4.55
2022-09-23T04:32:17.299Z,5.57
2022-09-23T04:34:46.532Z,4.63
2022-09-23T04:37:15.773Z,4.93
2022-09-23T04:39:45.023Z,5.60
2022-09-23T04:42:14.431Z,5.43
2022-09-23T04:44:43.662Z,5.10
2022-09-23T04:47:13.085Z,5.28
2022-09-23T04:49:43.369Z,5.05
2022-09-23T04:52:12.655Z,4.93
2022-09-23T04:54:43.510Z,4.68
2022-09-23T04:57:12.750Z,4.30
2022-09-23T04:59:42.049Z,5.18
2022-09-23T05:02:12.728Z,4.85
2022-09-23T05:04:42.587Z,4.72
2022-09-23T05:07:12.203Z,5.00
2022-09-23T05:09:41.646Z,5.80
2022-09-23T05:12:11.077Z,5.30
2022-09-23T05:14:40.696Z,4.97
2022-09-23T05:17:10.068Z,5.45
2022-09-23T05:19:42.578Z,4.80
2022-09-23T05:22:11.811Z,4.70
2022-09-23T05:24:42.466Z,5.10
2022-09-23T05:27:11.783Z,5.38
2022-09-23T05:29:42.913Z,4.88
2022-09-23T05:32:12.175Z,5.03
2022-09-23T05:34:41.682Z,5.65
2022-09-23T05:37:10.931Z,5.15
2022-09-23T05:39:40.419Z,4.47
2022-09-23T05:42:09.990Z,4.82
2022-09-23T05:44:42.404Z,4.53
2022-09-23T05:47:11.641Z,4.90
2022-09-23T05:49:58.518Z,5.35
2022-09-23T05:52:28.730Z,5.63
2022-09-23T05:54:58.074Z,5.10
2022-09-23T05:57:27.422Z,4.68
2022-09-23T05:59:56.776Z,4.72
2022-09-23T06:02:26.059Z,4.80
2022-09-23T06:04:55.374Z,5.18
2022-09-23T06:07:24.894Z,4.65
2022-09-23T06:09:55.784Z,5.50
2022-09-23T06:12:25.156Z,4.88
2022-09-23T06:14:54.457Z,5.40
2022-09-23T06:17:23.707Z,4.57
2022-09-23T06:19:52.922Z,4.35
2022-09-23T06:22:22.238Z,4.55
2022-09-23T06:24:51.530Z,5.10
2022-09-23T06:27:20.803Z,4.35
2022-09-23T06:29:52.499Z,5.03
2022-09-23T06:32:23.125Z,4.80
2022-09-23T06:34:52.415Z,4.45
2022-09-23T06:37:21.728Z,4.78
2022-09-23T06:39:51.201Z,4.65
2022-09-23T06:42:20.452Z,4.60
2022-09-23T06:44:49.708Z,4.90
2022-09-23T06:47:18.972Z,4.40
2022-09-23T06:49:48.609Z,4.57
2022-09-23T06:52:18.036Z,4.38
2022-09-23T06:54:47.364Z,4.70
2022-09-23T06:57:17.449Z,4.47
2022-09-23T06:59:46.781Z,4.22
2022-09-23T07:02:16.233Z,4.35
2022-09-23T07:04:45.527Z,4.75
2022-09-23T07:07:16.414Z,4.45
2022-09-23T07:09:45.658Z,4.65
2022-09-23T07:12:15.368Z,4.55
2022-09-23T07:14:46.043Z,4.63
2022-09-23T07:17:15.415Z,4.57
2022-09-23T07:19:44.799Z,4.10
2022-09-23T07:22:14.240Z,4.57
2022-09-23T07:24:44.011Z,4.93
2022-09-23T07:27:14.364Z,5.10
2022-09-23T07:29:48.446Z,4.30
2022-09-23T07:32:18.461Z,4.57
2022-09-23T07:34:48.279Z,4.28
2022-09-23T07:37:18.754Z,4.82
2022-09-23T07:39:48.296Z,4.07
2022-09-23T07:42:17.814Z,4.05
2022-09-23T07:44:47.839Z,4.25
2022-09-23T07:47:17.747Z,4.57
2022-09-23T07:49:47.098Z,4.53
2022-09-23T07:52:17.056Z,4.80
2022-09-23T07:54:49.713Z,4.53
2022-09-23T07:57:19.020Z,4.22
2022-09-23T07:59:48.339Z,4.90
2022-09-23T08:02:17.751Z,4.47
2022-09-23T08:04:47.124Z,4.00
2022-09-23T08:07:16.616Z,4.15
2022-09-23T08:09:46.948Z,3.70
2022-09-23T08:12:19.358Z,4.45
2022-09-23T08:17:17.845Z,3.97
2022-09-23T08:19:47.148Z,4.47
2022-09-23T08:22:16.538Z,4.30
2022-09-23T08:24:45.836Z,4.35
2022-09-23T08:27:15.345Z,4.53
2022-09-23T08:29:44.623Z,4.25
2022-09-23T08:32:14.285Z,3.85
2022-09-23T08:34:44.052Z,4.28
2022-09-23T08:37:14.101Z,3.97
2022-09-23T08:39:43.526Z,4.00
2022-09-23T08:42:34.406Z,4.35
2022-09-23T08:45:07.531Z,4.15
2022-09-23T08:47:47.525Z,4.57
2022-09-23T08:50:31.971Z,4.60
2022-09-23T08:53:04.593Z,4.32
2022-09-23T08:55:43.026Z,4.38
2022-09-23T08:58:46.611Z,4.18
2022-09-23T09:01:46.005Z,4.47
2022-09-23T09:04:44.403Z,4.30
2022-09-23T09:10:12.559Z,4.72
2022-09-23T09:12:46.841Z,5.45
2022-09-23T09:15:25.169Z,5.43
2022-09-23T09:18:33.535Z,5.07
2022-09-23T09:21:16.107Z,4.43
2022-09-23T09:26:45.690Z,5.53
2022-09-23T09:29:36.232Z,4.88
2022-09-23T09:32:21.851Z,5.40
2022-09-23T09:35:00.856Z,5.30
2022-09-23T09:37:38.336Z,5.47
2022-09-23T09:40:08.979Z,4.80
2022-09-23T09:42:43.747Z,4.40
2022-09-23T09:45:57.720Z,4.90
2022-09-23T09:48:56.359Z,5.35
2022-09-23T09:51:27.991Z,5.90
2022-09-23T09:54:17.824Z,5.28
2022-09-23T09:59:42.062Z,5.60
2022-09-23T10:02:32.361Z,5.28
2022-09-23T10:05:28.436Z,4.65
2022-09-23T10:07:58.092Z,4.95
2022-09-23T10:10:32.778Z,5.10
2022-09-23T10:13:18.320Z,5.47
2022-09-23T10:15:48.175Z,5.15
2022-09-23T10:18:31.871Z,4.35
2022-09-23T10:21:10.859Z,4.38
2022-09-23T10:23:54.361Z,5.25
2022-09-23T10:26:33.857Z,4.78
2022-09-23T10:29:21.637Z,4.82
2022-09-23T10:31:52.843Z,4.97
2022-09-23T10:34:29.380Z,5.00
2022-09-23T10:37:06.316Z,4.78
2022-09-23T10:39:48.473Z,5.10
2022-09-23T10:42:48.513Z,5.88
2022-09-23T10:45:41.195Z,4.90
2022-09-23T10:48:43.557Z,5.57
2022-09-23T10:51:42.285Z,5.10
2022-09-23T10:54:26.714Z,5.93
2022-09-23T10:57:23.253Z,6.00
2022-09-23T11:00:07.458Z,6.18
2022-09-23T11:02:52.606Z,5.68
2022-09-23T11:05:38.270Z,5.70
2022-09-23T11:08:36.572Z,5.82
2022-09-23T11:11:13.072Z,6.85
2022-09-23T11:13:54.735Z,6.10
2022-09-23T11:16:52.745Z,6.50
2022-09-23T11:19:38.139Z,6.32
2022-09-23T11:22:26.145Z,7.05
2022-09-23T11:25:33.769Z,6.88
2022-09-23T11:28:20.080Z,6.53
2022-09-23T11:31:24.243Z,7.57
2022-09-23T11:33:59.244Z,6.30
2022-09-23T11:36:44.720Z,6.63
2022-09-23T11:39:25.319Z,7.05
2022-09-23T11:41:59.341Z,6.45
2022-09-23T11:44:49.113Z,6.88
2022-09-23T11:47:28.162Z,5.80
2022-09-23T11:50:14.185Z,5.00
2022-09-23T11:52:48.352Z,5.68
2022-09-23T11:55:26.382Z,5.72
2022-09-23T11:58:25.696Z,5.05
2022-09-23T12:01:02.613Z,5.13
2022-09-23T12:03:43.879Z,5.03
2022-09-23T12:06:21.053Z,4.32
2022-09-23T12:08:57.644Z,4.40
2022-09-23T12:11:33.613Z,4.63
2022-09-23T12:14:27.356Z,4.57
2022-09-23T12:17:27.927Z,5.00
2022-09-23T12:20:17.143Z,4.72
2022-09-23T12:22:56.025Z,5.38
2022-09-23T12:25:43.354Z,4.68
2022-09-23T12:28:37.683Z,4.63
2022-09-23T12:31:13.720Z,5.60
2022-09-23T12:33:44.147Z,5.15
2022-09-23T12:36:14.862Z,4.53
2022-09-23T12:38:53.246Z,4.85
2022-09-23T12:41:29.300Z,4.80
2022-09-23T12:44:03.346Z,4.25
2022-09-23T12:46:32.658Z,5.13
2022-09-23T12:49:04.418Z,4.32
2022-09-23T12:51:39.392Z,4.18
2022-09-23T12:54:08.763Z,4.68
2022-09-23T12:56:42.503Z,4.35
2022-09-23T12:59:29.354Z,3.70
2022-09-23T13:01:59.729Z,4.32
2022-09-23T13:04:58.657Z,3.97
2022-09-23T13:07:37.108Z,4.60
2022-09-23T13:10:19.285Z,3.88
2022-09-23T13:12:50.018Z,3.90
2022-09-23T13:15:29.200Z,4.78
2022-09-23T13:18:26.525Z,4.13
2022-09-23T13:20:57.059Z,3.83
2022-09-23T13:23:33.836Z,3.88
2022-09-23T13:26:12.712Z,3.22
2022-09-23T13:28:47.376Z,3.67
2022-09-23T13:31:19.240Z,3.63
2022-09-23T13:33:51.796Z,3.28
2022-09-23T13:36:22.488Z,3.25
2022-09-23T13:38:51.764Z,3.25
2022-09-23T13:41:28.536Z,3.22
2022-09-23T13:44:00.585Z,2.78
2022-09-23T13:49:05.781Z,2.75
2022-09-23T13:51:39.111Z,2.95
2022-09-23T13:54:08.506Z,2.63
2022-09-23T13:56:38.020Z,2.72
2022-09-23T13:59:29.311Z,3.25
2022-09-23T14:02:07.048Z,2.60
2022-09-23T14:04:36.620Z,3.28
2022-09-23T14:07:07.060Z,2.92
2022-09-23T14:09:37.959Z,2.55
2022-09-23T14:12:12.518Z,2.90
2022-09-23T14:14:44.277Z,2.33
2022-09-23T14:17:19.692Z,2.40
2022-09-23T14:19:49.915Z,2.47
2022-09-23T14:22:31.091Z,2.50
2022-09-23T14:25:01.234Z,2.78
2022-09-23T14:27:33.625Z,2.20
2022-09-23T14:30:05.165Z,2.20
2022-09-23T14:32:34.986Z,2.40
2022-09-23T14:35:04.568Z,2.65
2022-09-23T14:37:55.841Z,2.67
2022-09-23T14:40:30.275Z,3.00
2022-09-23T14:42:59.584Z,2.30
2022-09-23T14:45:33.003Z,2.75
2022-09-23T14:48:12.711Z,2.15
2022-09-23T14:50:51.383Z,1.75
2022-09-23T14:53:22.426Z,2.40
2022-09-23T14:55:57.422Z,1.90
2022-09-23T14:58:31.270Z,2.45
2022-09-23T15:01:05.128Z,2.35
2022-09-23T15:03:34.487Z,2.78
2022-09-23T15:06:09.256Z,2.63
2022-09-23T15:08:38.703Z,2.60
2022-09-23T15:11:08.576Z,2.63
2022-09-23T15:13:45.196Z,3.17
2022-09-23T15:16:18.033Z,2.70
2022-09-23T15:18:48.766Z,2.85
2022-09-23T15:21:23.260Z,2.88
2022-09-23T15:23:58.627Z,2.55
2022-09-23T15:26:49.329Z,2.50
2022-09-23T15:29:18.609Z,2.65
2022-09-23T15:31:50.627Z,3.13
2022-09-23T15:34:21.141Z,3.08
2022-09-23T15:36:50.947Z,3.30
2022-09-23T15:39:20.331Z,3.30
2022-09-23T15:41:49.952Z,2.65
2022-09-23T15:44:28.628Z,3.00
2022-09-23T15:47:01.190Z,2.88
2022-09-23T15:49:39.041Z,2.60
2022-09-23T15:52:10.335Z,2.50
2022-09-23T15:54:39.908Z,3.20
2022-09-23T15:57:09.289Z,3.35
2022-09-23T15:59:38.564Z,2.83
2022-09-23T16:02:16.404Z,2.97
2022-09-23T16:04:47.276Z,3.03
2022-09-23T16:07:17.133Z,3.38
2022-09-23T16:09:46.398Z,3.08
2022-09-23T16:12:16.126Z,3.30
2022-09-23T16:14:45.418Z,3.20
2022-09-23T16:17:16.135Z,3.70
2022-09-23T16:19:45.413Z,3.58
2022-09-23T16:22:18.235Z,3.38
2022-09-23T16:24:47.605Z,3.38
2022-09-23T16:27:20.755Z,3.50
2022-09-23T16:29:50.025Z,3.58
2022-09-23T16:32:22.257Z,3.60
2022-09-23T16:34:51.678Z,3.67
2022-09-23T16:37:21.373Z,3.83
2022-09-23T16:39:55.445Z,3.53
2022-09-23T16:42:24.737Z,3.75
2022-09-23T16:44:54.001Z,3.70
2022-09-23T16:47:23.264Z,3.55
2022-09-23T16:49:52.613Z,3.67
2022-09-23T16:52:21.978Z,4.07
2022-09-23T16:54:51.254Z,3.40
2022-09-23T16:57:20.555Z,4.03
2022-09-23T17:00:02.308Z,3.70
2022-09-23T17:02:44.109Z,3.65
2022-09-23T17:05:16.395Z,3.63
2022-09-23T17:10:15.236Z,3.78
2022-09-23T17:12:44.545Z,4.45
2022-09-23T17:15:16.774Z,4.22
2022-09-23T17:20:15.767Z,4.07
2022-09-23T17:22:45.152Z,3.70
2022-09-23T17:25:14.674Z,4.55
2022-09-23T17:27:46.930Z,4.70
2022-09-23T17:32:45.952Z,6.63
2022-09-23T17:35:15.238Z,6.50
2022-09-23T17:37:44.540Z,7.03
2022-09-23T17:40:16.842Z,6.70
2022-09-23T17:45:15.954Z,5.93
2022-09-23T17:47:51.294Z,6.32
2022-09-23T17:50:20.844Z,6.72
2022-09-23T17:52:50.216Z,5.85
2022-09-23T17:55:19.996Z,5.57
2022-09-23T17:57:53.371Z,4.90
2022-09-23T18:00:22.822Z,5.47
2022-09-23T18:02:55.255Z,5.30
2022-09-23T18:05:25.039Z,6.40
2022-09-23T18:07:54.286Z,5.72
2022-09-23T18:10:23.623Z,6.55
2022-09-23T18:12:52.878Z,5.63
2022-09-23T18:15:22.171Z,5.50
2022-09-23T18:17:51.445Z,5.50
2022-09-23T18:20:20.716Z,6.63
2022-09-23T18:22:49.968Z,5.45
2022-09-23T18:25:38.211Z,6.00
2022-09-23T18:28:08.412Z,6.93
2022-09-23T18:30:37.688Z,5.97
2022-09-23T18:33:06.995Z,6.45
2022-09-23T18:35:36.315Z,6.70
2022-09-23T18:38:05.613Z,6.57
2022-09-23T18:40:35.026Z,7.03
2022-09-23T18:43:05.110Z,6.60
2022-09-23T18:45:34.437Z,7.07
2022-09-23T18:48:16.444Z,7.60
2022-09-23T18:50:47.447Z,7.68
2022-09-23T18:53:16.751Z,7.43
2022-09-23T18:55:46.111Z,7.25
2022-09-23T18:58:15.423Z,7.10
2022-09-23T19:00:44.772Z,6.90
2022-09-23T19:03:14.178Z,7.93
2022-09-23T19:05:43.459Z,7.18
2022-09-23T19:08:12.933Z,7.82
2022-09-23T19:10:42.225Z,7.57
2022-09-23T19:13:13.871Z,7.35
2022-09-23T19:15:43.208Z,7.75
2022-09-23T19:18:12.751Z,7.40
2022-09-23T19:20:51.846Z,7.00
2022-09-23T19:23:22.699Z,8.00
2022-09-23T19:25:52.232Z,8.23
2022-09-23T19:28:21.571Z,8.77
2022-09-23T19:30:50.808Z,11.45
2022-09-23T19:33:20.091Z,13.02
2022-09-23T19:35:53.976Z,12.43
2022-09-23T19:38:23.499Z,10.98
2022-09-23T19:40:53.887Z,8.88
2022-09-23T19:43:23.744Z,7.75
2022-09-23T19:45:57.050Z,8.82
2022-09-23T19:48:26.328Z,11.88
2022-09-23T19:50:55.569Z,12.77
2022-09-23T19:53:28.018Z,14.07
2022-09-23T19:56:00.533Z,14.05
2022-09-23T19:58:29.783Z,10.00
2022-09-23T20:00:59.139Z,9.13
2022-09-23T20:03:28.574Z,9.43
2022-09-23T20:05:59.637Z,9.43
2022-09-23T20:08:29.745Z,9.90
2022-09-23T20:10:59.103Z,10.43
2022-09-23T20:13:28.816Z,10.48
2022-09-23T20:15:58.165Z,9.32
2022-09-23T20:18:27.397Z,9.68
2022-09-23T20:20:57.429Z,8.55
2022-09-23T20:23:26.699Z,8.38
2022-09-23T20:26:12.392Z,7.85
2022-09-23T20:28:42.347Z,7.68
2022-09-23T20:31:11.883Z,8.43
2022-09-23T20:33:43.003Z,7.95
2022-09-23T20:36:17.114Z,8.57
2022-09-23T20:38:46.430Z,8.48
2022-09-23T20:41:17.270Z,7.90
2022-09-23T20:43:48.219Z,7.45
2022-09-23T20:46:17.830Z,7.88
2022-09-23T20:48:49.214Z,8.55
2022-09-23T20:51:18.568Z,8.40
2022-09-23T20:53:51.823Z,9.35
2022-09-23T20:56:22.311Z,9.25
2022-09-23T20:58:54.109Z,9.50
2022-09-23T21:01:24.184Z,9.63
2022-09-23T21:03:55.905Z,9.30
2022-09-23T21:06:26.975Z,9.23
2022-09-23T21:08:57.004Z,9.65
2022-09-23T21:11:26.430Z,11.52
2022-09-23T21:13:55.723Z,9.38
2022-09-23T21:16:25.838Z,9.45
2022-09-23T21:18:55.451Z,9.52
2022-09-23T21:21:24.775Z,10.27
2022-09-23T21:23:54.155Z,9.88
2022-09-23T21:26:26.107Z,9.38
2022-09-23T21:29:01.161Z,11.68
2022-09-23T21:31:34.781Z,10.75
2022-09-23T21:34:08.887Z,11.00
2022-09-23T21:36:41.453Z,9.95
2022-09-23T21:39:13.168Z,10.50
2022-09-23T21:41:42.909Z,10.98
2022-09-23T21:44:12.200Z,10.35
2022-09-23T21:46:41.679Z,10.55
2022-09-23T21:49:11.020Z,12.02
2022-09-23T21:51:42.870Z,11.70
2022-09-23T21:54:16.947Z,12.02
2022-09-23T21:56:47.206Z,11.20
2022-09-23T21:59:16.600Z,12.60
2022-09-23T22:01:48.363Z,12.52
2022-09-23T22:04:21.859Z,13.05
2022-09-23T22:06:51.488Z,12.13
2022-09-23T22:09:23.448Z,12.50
2022-09-23T22:12:09.647Z,11.93
2022-09-23T22:14:39.177Z,12.27
2022-09-23T22:17:12.277Z,13.18
2022-09-23T22:19:46.693Z,12.82
2022-09-23T22:22:17.966Z,11.43
2022-09-23T22:24:49.265Z,12.25
2022-09-23T22:27:21.070Z,12.25
2022-09-23T22:30:03.309Z,11.82
2022-09-23T22:32:46.271Z,11.55
2022-09-23T22:35:20.288Z,12.60
2022-09-23T22:37:49.658Z,12.30
2022-09-23T22:40:19.141Z,11.18
2022-09-23T22:42:48.777Z,10.60
2022-09-23T22:45:18.233Z,10.13
2022-09-23T22:47:48.095Z,10.52
2022-09-23T22:50:17.992Z,10.45
2022-09-23T22:52:47.581Z,9.30
2022-09-23T22:55:16.859Z,10.40
2022-09-23T22:57:46.148Z,9.27
2022-09-23T23:00:15.921Z,11.20
2022-09-23T23:02:45.391Z,10.63
2022-09-23T23:05:14.663Z,9.07
2022-09-23T23:07:44.719Z,10.40
2022-09-23T23:10:17.211Z,9.82
2022-09-23T23:12:46.981Z,9.35
2022-09-23T23:15:16.362Z,9.18
2022-09-23T23:17:45.635Z,9.50
2022-09-23T23:20:14.924Z,8.30
2022-09-23T23:22:44.253Z,8.68
2022-09-23T23:25:13.503Z,8.75
2022-09-23T23:27:42.752Z,8.63
2022-09-23T23:30:12.433Z,8.13
2022-09-23T23:32:42.349Z,8.02
2022-09-23T23:35:11.806Z,8.02
2022-09-23T23:37:41.060Z,8.27
2022-09-23T23:40:10.930Z,7.63
2022-09-23T23:42:40.196Z,8.23
2022-09-23T23:45:10.198Z,8.05
2022-09-23T23:47:41.404Z,8.07
2022-09-23T23:50:13.948Z,7.40
2022-09-23T23:52:43.283Z,7.25
2022-09-23T23:55:12.524Z,7.82
2022-09-23T23:57:42.183Z,8.88
